sensor_id;sensor_type;location;lat;lon;timestamp;P1;durP1;ratioP1;P2;durP2;ratioP2
60704;SDS011;46545;38.014;-7.874;2023-04-25T00:00:56;4.38;;;1.88;;
60704;SDS011;46545;38.014;-7.874;2023-04-25T00:02:57;3.05;;;1.52;;
60704;SDS011;46545;38.014;-7.874;2023-04-25T00:04:59;5.18;;;1.80;;
60704;SDS011;46545;38.014;-7.874;2023-04-25T00:06:59;4.82;;;1.67;;
60704;SDS011;46545;38.014;-7.874;2023-04-25T00:09:03;2.63;;;1.75;;
60704;SDS011;46545;38.014;-7.874;2023-04-25T00:11:07;9.60;;;2.20;;
60704;SDS011;46545;38.014;-7.874;2023-04-25T00:13:07;6.22;;;1.55;;
60704;SDS011;46545;38.014;-7.874;2023-04-25T00:15:08;4.25;;;1.67;;
60704;SDS011;46545;38.014;-7.874;2023-04-25T00:17:09;6.60;;;1.67;;
60704;SDS011;46545;38.014;-7.874;2023-04-25T00:19:11;6.00;;;1.55;;
60704;SDS011;46545;38.014;-7.874;2023-04-25T00:21:12;6.97;;;1.65;;
60704;SDS011;46545;38.014;-7.874;2023-04-25T00:23:13;6.43;;;1.80;;
60704;SDS011;46545;38.014;-7.874;2023-04-25T00:25:17;4.18;;;1.55;;
60704;SDS011;46545;38.014;-7.874;2023-04-25T00:27:18;4.25;;;1.42;;
60704;SDS011;46545;38.014;-7.874;2023-04-25T00:29:19;4.20;;;1.52;;
60704;SDS011;46545;38.014;-7.874;2023-04-25T00:31:20;3.70;;;1.30;;
60704;SDS011;46545;38.014;-7.874;2023-04-25T00:33:20;6.15;;;1.70;;
60704;SDS011;46545;38.014;-7.874;2023-04-25T00:35:21;3.15;;;1.40;;
60704;SDS011;46545;38.014;-7.874;2023-04-25T00:37:22;2.05;;;1.40;;
60704;SDS011;46545;38.014;-7.874;2023-04-25T00:39:22;7.38;;;1.70;;
60704;SDS011;46545;38.014;-7.874;2023-04-25T00:41:23;2.40;;;1.40;;
60704;SDS011;46545;38.014;-7.874;2023-04-25T00:43:26;4.90;;;1.55;;
60704;SDS011;46545;38.014;-7.874;2023-04-25T00:45:30;3.10;;;1.50;;
60704;SDS011;46545;38.014;-7.874;2023-04-25T00:47:30;5.18;;;1.40;;
60704;SDS011;46545;38.014;-7.874;2023-04-25T00:49:31;4.07;;;1.48;;
60704;SDS011;46545;38.014;-7.874;2023-04-25T00:51:32;9.27;;;1.95;;
60704;SDS011;46545;38.014;-7.874;2023-04-25T00:53:33;5.30;;;1.60;;
60704;SDS011;46545;38.014;-7.874;2023-04-25T00:55:33;2.90;;;1.13;;
60704;SDS011;46545;38.014;-7.874;2023-04-25T00:57:36;3.90;;;1.20;;
60704;SDS011;46545;38.014;-7.874;2023-04-25T00:59:37;3.55;;;1.30;;
60704;SDS011;46545;38.014;-7.874;2023-04-25T01:01:38;2.10;;;0.95;;
60704;SDS011;46545;38.014;-7.874;2023-04-25T01:03:39;3.10;;;1.23;;
60704;SDS011;46545;38.014;-7.874;2023-04-25T01:05:43;4.38;;;1.58;;
60704;SDS011;46545;38.014;-7.874;2023-04-25T01:07:44;2.70;;;1.38;;
60704;SDS011;46545;38.014;-7.874;2023-04-25T01:09:45;6.80;;;1.23;;
60704;SDS011;46545;38.014;-7.874;2023-04-25T01:11:46;2.72;;;1.65;;
60704;SDS011;46545;38.014;-7.874;2023-04-25T01:13:46;3.55;;;1.17;;
60704;SDS011;46545;38.014;-7.874;2023-04-25T01:15:47;5.13;;;1.38;;
60704;SDS011;46545;38.014;-7.874;2023-04-25T01:17:47;3.72;;;1.20;;
60704;SDS011;46545;38.014;-7.874;2023-04-25T01:19:49;3.80;;;1.77;;
60704;SDS011;46545;38.014;-7.874;2023-04-25T01:21:51;3.45;;;1.55;;
60704;SDS011;46545;38.014;-7.874;2023-04-25T01:23:52;6.63;;;1.33;;
60704;SDS011;46545;38.014;-7.874;2023-04-25T01:25:53;4.75;;;1.10;;
60704;SDS011;46545;38.014;-7.874;2023-04-25T01:27:55;4.07;;;1.02;;
60704;SDS011;46545;38.014;-7.874;2023-04-25T01:29:55;1.52;;;1.08;;
60704;SDS011;46545;38.014;-7.874;2023-04-25T01:31:56;3.42;;;1.20;;
60704;SDS011;46545;38.014;-7.874;2023-04-25T01:33:58;1.98;;;1.25;;
60704;SDS011;46545;38.014;-7.874;2023-04-25T01:35:59;1.75;;;1.20;;
60704;SDS011;46545;38.014;-7.874;2023-04-25T01:38:00;5.13;;;1.30;;
60704;SDS011;46545;38.014;-7.874;2023-04-25T01:40:01;7.75;;;1.50;;
60704;SDS011;46545;38.014;-7.874;2023-04-25T01:42:02;2.72;;;1.40;;
60704;SDS011;46545;38.014;-7.874;2023-04-25T01:44:04;1.65;;;1.15;;
60704;SDS011;46545;38.014;-7.874;2023-04-25T01:46:05;5.43;;;1.35;;
60704;SDS011;46545;38.014;-7.874;2023-04-25T01:48:09;2.67;;;1.10;;
60704;SDS011;46545;38.014;-7.874;2023-04-25T01:50:10;3.90;;;1.65;;
60704;SDS011;46545;38.014;-7.874;2023-04-25T01:52:12;4.78;;;1.20;;
60704;SDS011;46545;38.014;-7.874;2023-04-25T01:54:13;3.08;;;1.80;;
60704;SDS011;46545;38.014;-7.874;2023-04-25T01:56:13;3.97;;;1.27;;
60704;SDS011;46545;38.014;-7.874;2023-04-25T01:58:14;4.32;;;1.30;;
60704;SDS011;46545;38.014;-7.874;2023-04-25T02:00:36;1.40;;;1.30;;
60704;SDS011;46545;38.014;-7.874;2023-04-25T02:02:40;2.47;;;1.92;;
60704;SDS011;46545;38.014;-7.874;2023-04-25T02:04:54;5.35;;;1.90;;
60704;SDS011;46545;38.014;-7.874;2023-04-25T02:06:56;4.72;;;2.05;;
60704;SDS011;46545;38.014;-7.874;2023-04-25T02:08:58;8.85;;;1.92;;
60704;SDS011;46545;38.014;-7.874;2023-04-25T02:10:58;3.95;;;2.40;;
60704;SDS011;46545;38.014;-7.874;2023-04-25T02:13:04;4.65;;;2.25;;
60704;SDS011;46545;38.014;-7.874;2023-04-25T02:15:34;14.18;;;2.42;;
60704;SDS011;46545;38.014;-7.874;2023-04-25T02:17:47;5.80;;;3.00;;
60704;SDS011;46545;38.014;-7.874;2023-04-25T02:19:48;5.22;;;2.30;;
60704;SDS011;46545;38.014;-7.874;2023-04-25T02:21:50;3.63;;;2.40;;
60704;SDS011;46545;38.014;-7.874;2023-04-25T02:23:50;8.90;;;2.83;;
60704;SDS011;46545;38.014;-7.874;2023-04-25T02:25:52;4.50;;;2.83;;
60704;SDS011;46545;38.014;-7.874;2023-04-25T02:27:53;9.23;;;2.83;;
60704;SDS011;46545;38.014;-7.874;2023-04-25T02:29:54;3.80;;;2.50;;
60704;SDS011;46545;38.014;-7.874;2023-04-25T02:31:54;5.32;;;3.05;;
60704;SDS011;46545;38.014;-7.874;2023-04-25T02:33:55;10.07;;;2.70;;
60704;SDS011;46545;38.014;-7.874;2023-04-25T02:35:55;8.73;;;3.58;;
60704;SDS011;46545;38.014;-7.874;2023-04-25T02:37:56;7.32;;;3.22;;
60704;SDS011;46545;38.014;-7.874;2023-04-25T02:39:56;14.60;;;3.25;;
60704;SDS011;46545;38.014;-7.874;2023-04-25T02:41:57;7.10;;;3.60;;
60704;SDS011;46545;38.014;-7.874;2023-04-25T02:43:57;8.35;;;3.67;;
60704;SDS011;46545;38.014;-7.874;2023-04-25T02:45:57;6.47;;;3.42;;
60704;SDS011;46545;38.014;-7.874;2023-04-25T02:47:58;5.90;;;3.33;;
60704;SDS011;46545;38.014;-7.874;2023-04-25T02:49:58;7.25;;;3.97;;
60704;SDS011;46545;38.014;-7.874;2023-04-25T02:51:59;4.72;;;3.60;;
60704;SDS011;46545;38.014;-7.874;2023-04-25T02:54:00;10.27;;;3.35;;
60704;SDS011;46545;38.014;-7.874;2023-04-25T02:56:01;6.60;;;3.25;;
60704;SDS011;46545;38.014;-7.874;2023-04-25T02:58:01;6.60;;;3.50;;
60704;SDS011;46545;38.014;-7.874;2023-04-25T03:00:22;9.73;;;4.00;;
60704;SDS011;46545;38.014;-7.874;2023-04-25T03:02:23;5.38;;;3.38;;
60704;SDS011;46545;38.014;-7.874;2023-04-25T03:04:23;7.18;;;3.70;;
60704;SDS011;46545;38.014;-7.874;2023-04-25T03:06:24;11.35;;;3.30;;
60704;SDS011;46545;38.014;-7.874;2023-04-25T03:08:26;4.93;;;3.20;;
60704;SDS011;46545;38.014;-7.874;2023-04-25T03:10:31;9.77;;;3.17;;
60704;SDS011;46545;38.014;-7.874;2023-04-25T03:12:36;12.15;;;3.72;;
60704;SDS011;46545;38.014;-7.874;2023-04-25T03:14:38;5.45;;;2.75;;
60704;SDS011;46545;38.014;-7.874;2023-04-25T03:16:38;8.00;;;2.92;;
60704;SDS011;46545;38.014;-7.874;2023-04-25T03:18:39;6.18;;;3.00;;
60704;SDS011;46545;38.014;-7.874;2023-04-25T03:20:40;9.48;;;3.60;;
60704;SDS011;46545;38.014;-7.874;2023-04-25T03:22:42;7.00;;;3.05;;
60704;SDS011;46545;38.014;-7.874;2023-04-25T03:24:43;7.28;;;2.80;;
60704;SDS011;46545;38.014;-7.874;2023-04-25T03:26:44;11.95;;;3.78;;
60704;SDS011;46545;38.014;-7.874;2023-04-25T03:28:44;5.63;;;3.10;;
60704;SDS011;46545;38.014;-7.874;2023-04-25T03:30:46;9.07;;;3.40;;
60704;SDS011;46545;38.014;-7.874;2023-04-25T03:32:46;8.57;;;3.05;;
60704;SDS011;46545;38.014;-7.874;2023-04-25T03:34:50;6.95;;;2.58;;
60704;SDS011;46545;38.014;-7.874;2023-04-25T03:36:50;5.75;;;2.63;;
60704;SDS011;46545;38.014;-7.874;2023-04-25T03:38:51;5.38;;;3.78;;
60704;SDS011;46545;38.014;-7.874;2023-04-25T03:40:53;5.70;;;3.78;;
60704;SDS011;46545;38.014;-7.874;2023-04-25T03:43:01;5.70;;;2.67;;
60704;SDS011;46545;38.014;-7.874;2023-04-25T03:45:02;6.05;;;3.15;;
60704;SDS011;46545;38.014;-7.874;2023-04-25T03:47:03;7.25;;;3.20;;
60704;SDS011;46545;38.014;-7.874;2023-04-25T03:49:04;10.45;;;3.22;;
60704;SDS011;46545;38.014;-7.874;2023-04-25T03:51:25;7.10;;;4.15;;
60704;SDS011;46545;38.014;-7.874;2023-04-25T03:53:25;7.07;;;3.47;;
60704;SDS011;46545;38.014;-7.874;2023-04-25T03:55:44;12.38;;;5.53;;
60704;SDS011;46545;38.014;-7.874;2023-04-25T03:57:45;8.75;;;4.60;;
60704;SDS011;46545;38.014;-7.874;2023-04-25T03:59:45;9.10;;;5.13;;
60704;SDS011;46545;38.014;-7.874;2023-04-25T04:01:48;13.70;;;6.43;;
60704;SDS011;46545;38.014;-7.874;2023-04-25T04:03:48;11.65;;;6.50;;
60704;SDS011;46545;38.014;-7.874;2023-04-25T04:05:50;8.88;;;6.47;;
60704;SDS011;46545;38.014;-7.874;2023-04-25T04:07:51;10.85;;;6.97;;
60704;SDS011;46545;38.014;-7.874;2023-04-25T04:09:52;13.75;;;7.15;;
60704;SDS011;46545;38.014;-7.874;2023-04-25T04:11:58;16.45;;;7.95;;
60704;SDS011;46545;38.014;-7.874;2023-04-25T04:13:59;18.92;;;8.18;;
60704;SDS011;46545;38.014;-7.874;2023-04-25T04:16:00;15.88;;;8.88;;
60704;SDS011;46545;38.014;-7.874;2023-04-25T04:18:01;12.77;;;8.57;;
60704;SDS011;46545;38.014;-7.874;2023-04-25T04:20:03;12.02;;;7.30;;
60704;SDS011;46545;38.014;-7.874;2023-04-25T04:22:05;18.48;;;9.25;;
60704;SDS011;46545;38.014;-7.874;2023-04-25T04:24:06;19.85;;;10.45;;
60704;SDS011;46545;38.014;-7.874;2023-04-25T04:26:19;22.90;;;14.23;;
60704;SDS011;46545;38.014;-7.874;2023-04-25T04:28:42;27.40;;;14.60;;
60704;SDS011;46545;38.014;-7.874;2023-04-25T04:31:04;23.90;;;14.07;;
60704;SDS011;46545;38.014;-7.874;2023-04-25T04:33:04;28.75;;;16.73;;
60704;SDS011;46545;38.014;-7.874;2023-04-25T04:35:05;26.23;;;16.38;;
60704;SDS011;46545;38.014;-7.874;2023-04-25T04:37:06;24.98;;;15.93;;
60704;SDS011;46545;38.014;-7.874;2023-04-25T04:39:07;28.10;;;16.95;;
60704;SDS011;46545;38.014;-7.874;2023-04-25T04:41:13;26.15;;;16.23;;
60704;SDS011;46545;38.014;-7.874;2023-04-25T04:43:23;32.17;;;16.63;;
60704;SDS011;46545;38.014;-7.874;2023-04-25T04:45:47;24.70;;;16.20;;
60704;SDS011;46545;38.014;-7.874;2023-04-25T04:50:11;26.17;;;14.52;;
60704;SDS011;46545;38.014;-7.874;2023-04-25T04:52:30;30.35;;;17.40;;
60704;SDS011;46545;38.014;-7.874;2023-04-25T04:54:38;32.97;;;17.77;;
60704;SDS011;46545;38.014;-7.874;2023-04-25T04:56:48;27.50;;;18.45;;
60704;SDS011;46545;38.014;-7.874;2023-04-25T04:59:13;30.70;;;18.55;;
60704;SDS011;46545;38.014;-7.874;2023-04-25T05:01:22;33.60;;;17.92;;
60704;SDS011;46545;38.014;-7.874;2023-04-25T05:03:39;28.30;;;16.92;;
60704;SDS011;46545;38.014;-7.874;2023-04-25T05:06:00;27.80;;;16.05;;
60704;SDS011;46545;38.014;-7.874;2023-04-25T05:08:00;25.73;;;16.00;;
60704;SDS011;46545;38.014;-7.874;2023-04-25T05:10:15;27.02;;;15.98;;
60704;SDS011;46545;38.014;-7.874;2023-04-25T05:12:35;26.17;;;14.00;;
60704;SDS011;46545;38.014;-7.874;2023-04-25T05:14:59;22.08;;;13.50;;
60704;SDS011;46545;38.014;-7.874;2023-04-25T05:17:13;22.13;;;12.13;;
60704;SDS011;46545;38.014;-7.874;2023-04-25T05:19:34;18.20;;;10.98;;
60704;SDS011;46545;38.014;-7.874;2023-04-25T05:21:54;20.35;;;13.15;;
60704;SDS011;46545;38.014;-7.874;2023-04-25T05:24:04;25.48;;;12.60;;
60704;SDS011;46545;38.014;-7.874;2023-04-25T05:26:23;23.70;;;12.52;;
60704;SDS011;46545;38.014;-7.874;2023-04-25T05:28:59;19.98;;;12.52;;
60704;SDS011;46545;38.014;-7.874;2023-04-25T05:31:18;20.02;;;12.35;;
60704;SDS011;46545;38.014;-7.874;2023-04-25T05:33:31;21.17;;;13.55;;
60704;SDS011;46545;38.014;-7.874;2023-04-25T05:35:31;21.67;;;14.10;;
60704;SDS011;46545;38.014;-7.874;2023-04-25T05:37:32;34.33;;;16.20;;
60704;SDS011;46545;38.014;-7.874;2023-04-25T05:39:42;27.40;;;15.20;;
60704;SDS011;46545;38.014;-7.874;2023-04-25T05:42:00;29.05;;;15.77;;
60704;SDS011;46545;38.014;-7.874;2023-04-25T05:44:24;27.98;;;15.95;;
60704;SDS011;46545;38.014;-7.874;2023-04-25T05:46:51;28.95;;;17.13;;
60704;SDS011;46545;38.014;-7.874;2023-04-25T05:49:03;31.75;;;18.17;;
60704;SDS011;46545;38.014;-7.874;2023-04-25T05:51:26;34.13;;;19.65;;
60704;SDS011;46545;38.014;-7.874;2023-04-25T05:53:50;33.17;;;19.55;;
60704;SDS011;46545;38.014;-7.874;2023-04-25T05:55:51;38.50;;;20.92;;
60704;SDS011;46545;38.014;-7.874;2023-04-25T05:57:56;41.75;;;22.35;;
60704;SDS011;46545;38.014;-7.874;2023-04-25T05:59:57;48.22;;;25.40;;
60704;SDS011;46545;38.014;-7.874;2023-04-25T06:02:13;43.13;;;23.00;;
60704;SDS011;46545;38.014;-7.874;2023-04-25T06:04:14;38.03;;;22.27;;
60704;SDS011;46545;38.014;-7.874;2023-04-25T06:06:15;33.05;;;19.92;;
60704;SDS011;46545;38.014;-7.874;2023-04-25T06:08:15;36.55;;;20.23;;
60704;SDS011;46545;38.014;-7.874;2023-04-25T06:10:16;32.22;;;20.17;;
60704;SDS011;46545;38.014;-7.874;2023-04-25T06:12:17;33.17;;;18.50;;
60704;SDS011;46545;38.014;-7.874;2023-04-25T06:14:17;33.38;;;18.38;;
60704;SDS011;46545;38.014;-7.874;2023-04-25T06:16:22;39.25;;;18.52;;
60704;SDS011;46545;38.014;-7.874;2023-04-25T06:18:23;31.75;;;16.83;;
60704;SDS011;46545;38.014;-7.874;2023-04-25T06:20:24;28.10;;;14.85;;
60704;SDS011;46545;38.014;-7.874;2023-04-25T06:22:25;28.20;;;15.13;;
60704;SDS011;46545;38.014;-7.874;2023-04-25T06:24:26;25.98;;;14.38;;
60704;SDS011;46545;38.014;-7.874;2023-04-25T06:26:26;26.10;;;15.10;;
60704;SDS011;46545;38.014;-7.874;2023-04-25T06:28:27;31.70;;;16.60;;
60704;SDS011;46545;38.014;-7.874;2023-04-25T06:30:28;28.15;;;16.23;;
60704;SDS011;46545;38.014;-7.874;2023-04-25T06:32:34;30.20;;;16.08;;
60704;SDS011;46545;38.014;-7.874;2023-04-25T06:34:35;32.17;;;17.60;;
60704;SDS011;46545;38.014;-7.874;2023-04-25T06:36:36;36.10;;;19.02;;
60704;SDS011;46545;38.014;-7.874;2023-04-25T06:38:41;32.22;;;18.00;;
60704;SDS011;46545;38.014;-7.874;2023-04-25T06:40:41;32.15;;;16.05;;
60704;SDS011;46545;38.014;-7.874;2023-04-25T06:42:43;26.65;;;16.55;;
60704;SDS011;46545;38.014;-7.874;2023-04-25T06:45:05;28.25;;;15.98;;
60704;SDS011;46545;38.014;-7.874;2023-04-25T06:47:06;29.27;;;16.27;;
60704;SDS011;46545;38.014;-7.874;2023-04-25T06:49:06;25.75;;;15.40;;
60704;SDS011;46545;38.014;-7.874;2023-04-25T06:51:07;23.80;;;15.77;;
60704;SDS011;46545;38.014;-7.874;2023-04-25T06:53:09;27.08;;;14.93;;
60704;SDS011;46545;38.014;-7.874;2023-04-25T06:55:12;26.20;;;15.00;;
60704;SDS011;46545;38.014;-7.874;2023-04-25T06:57:31;23.45;;;15.45;;
60704;SDS011;46545;38.014;-7.874;2023-04-25T06:59:43;24.67;;;13.88;;
60704;SDS011;46545;38.014;-7.874;2023-04-25T07:01:43;18.33;;;10.77;;
60704;SDS011;46545;38.014;-7.874;2023-04-25T07:03:56;16.00;;;11.00;;
60704;SDS011;46545;38.014;-7.874;2023-04-25T07:05:57;14.93;;;10.20;;
60704;SDS011;46545;38.014;-7.874;2023-04-25T07:07:58;13.82;;;8.90;;
60704;SDS011;46545;38.014;-7.874;2023-04-25T07:10:00;7.95;;;6.68;;
60704;SDS011;46545;38.014;-7.874;2023-04-25T07:12:00;10.32;;;6.55;;
60704;SDS011;46545;38.014;-7.874;2023-04-25T07:14:02;10.23;;;6.93;;
60704;SDS011;46545;38.014;-7.874;2023-04-25T07:16:02;9.18;;;6.60;;
60704;SDS011;46545;38.014;-7.874;2023-04-25T07:18:05;9.15;;;6.22;;
60704;SDS011;46545;38.014;-7.874;2023-04-25T07:20:05;10.80;;;6.03;;
60704;SDS011;46545;38.014;-7.874;2023-04-25T07:22:07;7.22;;;5.18;;
60704;SDS011;46545;38.014;-7.874;2023-04-25T07:24:09;8.57;;;4.70;;
60704;SDS011;46545;38.014;-7.874;2023-04-25T07:26:14;6.10;;;4.80;;
60704;SDS011;46545;38.014;-7.874;2023-04-25T07:28:34;7.38;;;4.38;;
60704;SDS011;46545;38.014;-7.874;2023-04-25T07:30:36;5.47;;;3.53;;
60704;SDS011;46545;38.014;-7.874;2023-04-25T07:32:38;5.13;;;3.20;;
60704;SDS011;46545;38.014;-7.874;2023-04-25T07:34:38;6.35;;;3.10;;
60704;SDS011;46545;38.014;-7.874;2023-04-25T07:36:39;5.63;;;3.30;;
60704;SDS011;46545;38.014;-7.874;2023-04-25T07:38:40;4.05;;;3.13;;
60704;SDS011;46545;38.014;-7.874;2023-04-25T07:40:41;4.78;;;2.17;;
60704;SDS011;46545;38.014;-7.874;2023-04-25T07:42:43;2.17;;;1.60;;
60704;SDS011;46545;38.014;-7.874;2023-04-25T07:44:45;7.70;;;2.42;;
60704;SDS011;46545;38.014;-7.874;2023-04-25T07:46:47;4.95;;;2.22;;
60704;SDS011;46545;38.014;-7.874;2023-04-25T07:48:48;3.17;;;2.08;;
60704;SDS011;46545;38.014;-7.874;2023-04-25T07:50:48;4.35;;;1.95;;
60704;SDS011;46545;38.014;-7.874;2023-04-25T07:52:49;4.68;;;1.45;;
60704;SDS011;46545;38.014;-7.874;2023-04-25T07:55:00;4.93;;;1.95;;
60704;SDS011;46545;38.014;-7.874;2023-04-25T07:57:12;3.65;;;1.85;;
60704;SDS011;46545;38.014;-7.874;2023-04-25T07:59:14;4.35;;;1.80;;
60704;SDS011;46545;38.014;-7.874;2023-04-25T08:01:16;2.50;;;1.88;;
60704;SDS011;46545;38.014;-7.874;2023-04-25T08:03:16;3.40;;;1.83;;
60704;SDS011;46545;38.014;-7.874;2023-04-25T08:05:17;3.50;;;2.05;;
60704;SDS011;46545;38.014;-7.874;2023-04-25T08:07:24;2.13;;;1.33;;
60704;SDS011;46545;38.014;-7.874;2023-04-25T08:09:29;2.92;;;1.60;;
60704;SDS011;46545;38.014;-7.874;2023-04-25T08:11:34;3.42;;;1.95;;
60704;SDS011;46545;38.014;-7.874;2023-04-25T08:13:35;5.53;;;1.70;;
60704;SDS011;46545;38.014;-7.874;2023-04-25T08:15:35;3.22;;;1.70;;
60704;SDS011;46545;38.014;-7.874;2023-04-25T08:17:36;4.85;;;1.80;;
60704;SDS011;46545;38.014;-7.874;2023-04-25T08:19:37;2.33;;;1.08;;
60704;SDS011;46545;38.014;-7.874;2023-04-25T08:21:37;1.38;;;1.00;;
60704;SDS011;46545;38.014;-7.874;2023-04-25T08:23:42;1.83;;;1.00;;
60704;SDS011;46545;38.014;-7.874;2023-04-25T08:25:47;2.58;;;1.05;;
60704;SDS011;46545;38.014;-7.874;2023-04-25T08:27:53;3.10;;;1.35;;
60704;SDS011;46545;38.014;-7.874;2023-04-25T08:29:55;2.58;;;0.88;;
60704;SDS011;46545;38.014;-7.874;2023-04-25T08:31:56;1.77;;;0.70;;
60704;SDS011;46545;38.014;-7.874;2023-04-25T08:33:57;3.28;;;0.93;;
60704;SDS011;46545;38.014;-7.874;2023-04-25T08:36:02;2.28;;;0.82;;
60704;SDS011;46545;38.014;-7.874;2023-04-25T08:38:04;2.67;;;0.80;;
60704;SDS011;46545;38.014;-7.874;2023-04-25T08:40:05;1.70;;;1.02;;
60704;SDS011;46545;38.014;-7.874;2023-04-25T08:42:19;3.08;;;0.95;;
60704;SDS011;46545;38.014;-7.874;2023-04-25T08:44:21;3.37;;;0.90;;
60704;SDS011;46545;38.014;-7.874;2023-04-25T08:46:22;2.58;;;0.73;;
60704;SDS011;46545;38.014;-7.874;2023-04-25T08:48:36;1.70;;;0.80;;
60704;SDS011;46545;38.014;-7.874;2023-04-25T08:50:45;1.73;;;0.88;;
60704;SDS011;46545;38.014;-7.874;2023-04-25T08:52:45;3.50;;;0.55;;
60704;SDS011;46545;38.014;-7.874;2023-04-25T08:54:48;3.47;;;0.80;;
60704;SDS011;46545;38.014;-7.874;2023-04-25T08:56:49;3.03;;;0.93;;
60704;SDS011;46545;38.014;-7.874;2023-04-25T08:58:49;2.92;;;0.60;;
60704;SDS011;46545;38.014;-7.874;2023-04-25T09:00:53;1.92;;;0.63;;
60704;SDS011;46545;38.014;-7.874;2023-04-25T09:02:56;2.25;;;0.85;;
60704;SDS011;46545;38.014;-7.874;2023-04-25T09:04:57;3.50;;;1.00;;
60704;SDS011;46545;38.014;-7.874;2023-04-25T09:06:58;1.77;;;0.70;;
60704;SDS011;46545;38.014;-7.874;2023-04-25T09:09:02;2.05;;;0.65;;
60704;SDS011;46545;38.014;-7.874;2023-04-25T09:11:04;1.40;;;0.63;;
60704;SDS011;46545;38.014;-7.874;2023-04-25T09:13:06;1.40;;;0.55;;
60704;SDS011;46545;38.014;-7.874;2023-04-25T09:15:15;1.60;;;0.70;;
60704;SDS011;46545;38.014;-7.874;2023-04-25T09:17:24;1.75;;;0.75;;
60704;SDS011;46545;38.014;-7.874;2023-04-25T09:19:33;2.20;;;0.88;;
60704;SDS011;46545;38.014;-7.874;2023-04-25T09:21:35;2.30;;;0.45;;
60704;SDS011;46545;38.014;-7.874;2023-04-25T09:23:54;0.95;;;0.60;;
60704;SDS011;46545;38.014;-7.874;2023-04-25T09:25:55;1.83;;;0.63;;
60704;SDS011;46545;38.014;-7.874;2023-04-25T09:27:56;2.30;;;0.80;;
60704;SDS011;46545;38.014;-7.874;2023-04-25T09:30:02;3.08;;;0.55;;
60704;SDS011;46545;38.014;-7.874;2023-04-25T09:32:19;1.95;;;0.73;;
60704;SDS011;46545;38.014;-7.874;2023-04-25T09:34:21;1.02;;;0.40;;
60704;SDS011;46545;38.014;-7.874;2023-04-25T09:36:29;1.30;;;0.70;;
60704;SDS011;46545;38.014;-7.874;2023-04-25T09:38:50;1.77;;;0.55;;
60704;SDS011;46545;38.014;-7.874;2023-04-25T09:40:56;2.58;;;0.70;;
60704;SDS011;46545;38.014;-7.874;2023-04-25T09:43:09;1.10;;;0.55;;
60704;SDS011;46545;38.014;-7.874;2023-04-25T09:45:12;2.22;;;0.63;;
60704;SDS011;46545;38.014;-7.874;2023-04-25T09:47:15;1.77;;;0.50;;
60704;SDS011;46545;38.014;-7.874;2023-04-25T09:49:19;1.83;;;0.93;;
60704;SDS011;46545;38.014;-7.874;2023-04-25T09:51:33;2.63;;;0.75;;
60704;SDS011;46545;38.014;-7.874;2023-04-25T09:53:35;2.70;;;1.00;;
60704;SDS011;46545;38.014;-7.874;2023-04-25T09:55:46;1.67;;;0.60;;
60704;SDS011;46545;38.014;-7.874;2023-04-25T09:57:46;2.03;;;0.90;;
60704;SDS011;46545;38.014;-7.874;2023-04-25T09:59:49;2.25;;;0.88;;
60704;SDS011;46545;38.014;-7.874;2023-04-25T10:01:50;2.53;;;1.00;;
60704;SDS011;46545;38.014;-7.874;2023-04-25T10:04:01;3.10;;;0.75;;
60704;SDS011;46545;38.014;-7.874;2023-04-25T10:06:19;1.63;;;0.95;;
60704;SDS011;46545;38.014;-7.874;2023-04-25T10:08:20;1.30;;;0.43;;
60704;SDS011;46545;38.014;-7.874;2023-04-25T10:10:21;4.22;;;1.20;;
60704;SDS011;46545;38.014;-7.874;2023-04-25T10:12:26;2.25;;;1.00;;
60704;SDS011;46545;38.014;-7.874;2023-04-25T10:14:26;1.35;;;0.80;;
60704;SDS011;46545;38.014;-7.874;2023-04-25T10:16:27;2.50;;;0.60;;
60704;SDS011;46545;38.014;-7.874;2023-04-25T10:18:29;4.30;;;1.15;;
60704;SDS011;46545;38.014;-7.874;2023-04-25T10:20:29;3.63;;;0.70;;
60704;SDS011;46545;38.014;-7.874;2023-04-25T10:22:41;3.40;;;0.90;;
60704;SDS011;46545;38.014;-7.874;2023-04-25T10:24:42;0.55;;;0.38;;
60704;SDS011;46545;38.014;-7.874;2023-04-25T10:26:43;3.53;;;0.70;;
60704;SDS011;46545;38.014;-7.874;2023-04-25T10:29:02;3.33;;;0.85;;
60704;SDS011;46545;38.014;-7.874;2023-04-25T10:31:04;2.40;;;0.55;;
60704;SDS011;46545;38.014;-7.874;2023-04-25T10:33:16;3.60;;;0.77;;
60704;SDS011;46545;38.014;-7.874;2023-04-25T10:35:34;3.08;;;0.88;;
60704;SDS011;46545;38.014;-7.874;2023-04-25T10:37:35;3.72;;;0.50;;
60704;SDS011;46545;38.014;-7.874;2023-04-25T10:39:35;3.70;;;0.50;;
60704;SDS011;46545;38.014;-7.874;2023-04-25T10:41:47;4.20;;;1.08;;
60704;SDS011;46545;38.014;-7.874;2023-04-25T10:43:48;2.63;;;0.50;;
60704;SDS011;46545;38.014;-7.874;2023-04-25T10:45:52;0.60;;;0.38;;
60704;SDS011;46545;38.014;-7.874;2023-04-25T10:47:53;0.90;;;0.60;;
60704;SDS011;46545;38.014;-7.874;2023-04-25T10:49:54;0.88;;;0.50;;
60704;SDS011;46545;38.014;-7.874;2023-04-25T10:52:14;3.08;;;0.82;;
60704;SDS011;46545;38.014;-7.874;2023-04-25T10:54:15;2.38;;;0.70;;
60704;SDS011;46545;38.014;-7.874;2023-04-25T10:58:30;0.97;;;0.40;;
60704;SDS011;46545;38.014;-7.874;2023-04-25T11:00:31;2.38;;;0.50;;
60704;SDS011;46545;38.014;-7.874;2023-04-25T11:02:36;1.17;;;0.60;;
60704;SDS011;46545;38.014;-7.874;2023-04-25T11:04:37;1.15;;;0.52;;
60704;SDS011;46545;38.014;-7.874;2023-04-25T11:08:57;1.58;;;0.50;;
60704;SDS011;46545;38.014;-7.874;2023-04-25T11:11:00;6.17;;;1.13;;
60704;SDS011;46545;38.014;-7.874;2023-04-25T11:13:01;3.38;;;0.70;;
60704;SDS011;46545;38.014;-7.874;2023-04-25T11:15:05;0.82;;;0.47;;
60704;SDS011;46545;38.014;-7.874;2023-04-25T11:17:06;3.63;;;0.68;;
60704;SDS011;46545;38.014;-7.874;2023-04-25T11:19:06;2.42;;;0.70;;
60704;SDS011;46545;38.014;-7.874;2023-04-25T11:21:07;1.48;;;0.50;;
60704;SDS011;46545;38.014;-7.874;2023-04-25T11:23:07;3.72;;;1.10;;
60704;SDS011;46545;38.014;-7.874;2023-04-25T11:25:08;2.50;;;0.73;;
60704;SDS011;46545;38.014;-7.874;2023-04-25T11:27:09;5.60;;;5.20;;
60704;SDS011;46545;38.014;-7.874;2023-04-25T11:29:09;1.42;;;0.70;;
60704;SDS011;46545;38.014;-7.874;2023-04-25T11:31:10;1.48;;;0.40;;
60704;SDS011;46545;38.014;-7.874;2023-04-25T11:33:10;0.95;;;0.50;;
60704;SDS011;46545;38.014;-7.874;2023-04-25T11:35:11;1.17;;;0.50;;
60704;SDS011;46545;38.014;-7.874;2023-04-25T11:37:11;1.20;;;0.50;;
60704;SDS011;46545;38.014;-7.874;2023-04-25T11:39:12;0.80;;;0.38;;
60704;SDS011;46545;38.014;-7.874;2023-04-25T11:41:13;0.70;;;0.50;;
60704;SDS011;46545;38.014;-7.874;2023-04-25T11:43:14;1.83;;;0.50;;
60704;SDS011;46545;38.014;-7.874;2023-04-25T11:45:14;2.63;;;0.52;;
60704;SDS011;46545;38.014;-7.874;2023-04-25T11:47:15;1.05;;;0.75;;
60704;SDS011;46545;38.014;-7.874;2023-04-25T11:49:15;2.00;;;0.50;;
60704;SDS011;46545;38.014;-7.874;2023-04-25T11:51:18;2.75;;;0.50;;
60704;SDS011;46545;38.014;-7.874;2023-04-25T11:53:18;0.77;;;0.40;;
60704;SDS011;46545;38.014;-7.874;2023-04-25T11:55:19;0.50;;;0.50;;
60704;SDS011;46545;38.014;-7.874;2023-04-25T11:57:20;0.77;;;0.30;;
60704;SDS011;46545;38.014;-7.874;2023-04-25T11:59:23;1.38;;;0.45;;
60704;SDS011;46545;38.014;-7.874;2023-04-25T12:01:28;2.33;;;0.47;;
60704;SDS011;46545;38.014;-7.874;2023-04-25T12:03:29;2.97;;;0.60;;
60704;SDS011;46545;38.014;-7.874;2023-04-25T12:05:31;2.15;;;0.43;;
60704;SDS011;46545;38.014;-7.874;2023-04-25T12:07:33;2.38;;;0.52;;
60704;SDS011;46545;38.014;-7.874;2023-04-25T12:09:33;2.05;;;0.60;;
60704;SDS011;46545;38.014;-7.874;2023-04-25T12:12:09;2.17;;;0.40;;
60704;SDS011;46545;38.014;-7.874;2023-04-25T12:14:04;2.28;;;0.47;;
60704;SDS011;46545;38.014;-7.874;2023-04-25T12:18:07;3.00;;;0.73;;
60704;SDS011;46545;38.014;-7.874;2023-04-25T12:20:08;0.93;;;0.57;;
60704;SDS011;46545;38.014;-7.874;2023-04-25T12:22:22;2.28;;;0.98;;